Time;durP1;ratioP1;P1;durP2;ratioP2;P2;SDS_P1;SDS_P2;PMS_P1;PMS_P2;Temp;Humidity;BMP_temperature;BMP_pressure;BME280_temperature;BME280_humidity;BME280_pressure;Samples;Min_cycle;Max_cycle;Signal;HPM_P1;HPM_P2
2024/01/25 00:02:12;;;;;;;11.03;3.97;;;11.60;77.20;;;;;;953527;147;27370;-86
2024/01/25 00:04:38;;;;;;;11.60;3.77;;;11.60;77.40;;;;;;953352;147;27270;-86
2024/01/25 00:07:05;;;;;;;14.60;4.60;;;11.60;77.30;;;;;;952969;148;27328;-84
2024/01/25 00:09:32;;;;;;;9.13;3.37;;;11.60;77.40;;;;;;954044;148;27452;-86
2024/01/25 00:11:58;;;;;;;14.57;3.90;;;11.50;77.30;;;;;;952396;148;27771;-85
2024/01/25 00:14:25;;;;;;;12.23;4.07;;;11.50;77.40;;;;;;953918;147;27293;-85
2024/01/25 00:16:51;;;;;;;15.73;5.20;;;11.60;77.50;;;;;;954984;148;27346;-83
2024/01/25 00:19:18;;;;;;;11.50;3.98;;;11.60;77.60;;;;;;953005;147;27360;-86
2024/01/25 00:21:44;;;;;;;10.03;3.13;;;11.60;77.60;;;;;;955755;147;27332;-86
2024/01/25 00:24:14;;;;;;;9.33;3.70;;;11.60;77.70;;;;;;953742;147;27319;-84
2024/01/25 00:26:41;;;;;;;12.00;4.20;;;11.60;77.70;;;;;;955239;147;27384;-87
2024/01/25 00:29:07;;;;;;;15.47;4.37;;;11.60;77.70;;;;;;954085;147;27328;-83
2024/01/25 00:31:34;;;;;;;11.33;3.37;;;11.70;77.80;;;;;;954851;148;27401;-86
2024/01/25 00:34:01;;;;;;;12.13;3.83;;;11.70;77.70;;;;;;952822;147;27359;-86
2024/01/25 00:36:27;;;;;;;11.30;3.63;;;11.70;77.60;;;;;;953259;147;27452;-86
2024/01/25 00:38:54;;;;;;;16.10;4.17;;;11.70;77.50;;;;;;953076;148;27383;-82
2024/01/25 00:41:20;;;;;;;8.87;3.37;;;11.70;78.30;;;;;;952173;148;27461;-81
2024/01/25 00:43:47;;;;;;;11.97;3.83;;;11.70;77.50;;;;;;953444;147;27374;-81
2024/01/25 00:46:14;;;;;;;11.90;3.77;;;11.70;77.50;;;;;;956119;148;27281;-81
2024/01/25 00:48:40;;;;;;;11.15;3.35;;;11.70;77.50;;;;;;954631;146;27245;-82
2024/01/25 00:51:09;;;;;;;7.33;3.33;;;11.70;77.50;;;;;;952792;147;27690;-83
2024/01/25 00:53:36;;;;;;;11.03;3.40;;;11.70;77.60;;;;;;952949;148;27369;-81
2024/01/25 00:56:02;;;;;;;10.47;3.70;;;11.70;77.70;;;;;;953690;148;27321;-81
2024/01/25 00:58:29;;;;;;;15.13;3.60;;;11.70;77.80;;;;;;953136;147;27372;-82
2024/01/25 01:00:56;;;;;;;11.70;3.47;;;11.70;77.80;;;;;;953729;148;27408;-81
2024/01/25 01:03:22;;;;;;;12.30;3.70;;;11.60;78.00;;;;;;954131;148;27421;-81
2024/01/25 01:05:49;;;;;;;9.73;4.07;;;11.60;78.00;;;;;;954026;148;27252;-81
2024/01/25 01:08:15;;;;;;;10.60;3.07;;;11.70;78.20;;;;;;952516;146;27367;-82
2024/01/25 01:10:42;;;;;;;9.23;3.43;;;11.60;78.20;;;;;;954802;146;27276;-82
2024/01/25 01:13:09;;;;;;;12.33;3.90;;;11.60;78.30;;;;;;952709;148;27425;-81
2024/01/25 01:15:35;;;;;;;13.07;3.47;;;11.60;78.30;;;;;;953403;148;27273;-81
2024/01/25 01:18:02;;;;;;;11.23;3.80;;;11.70;78.50;;;;;;953252;147;27281;-81
2024/01/25 01:20:28;;;;;;;10.37;3.67;;;11.70;78.50;;;;;;952276;148;27322;-82
2024/01/25 01:22:55;;;;;;;10.88;3.87;;;11.70;78.80;;;;;;955459;147;27325;-81
2024/01/25 01:25:22;;;;;;;10.80;4.13;;;11.70;78.50;;;;;;954493;148;27281;-81
2024/01/25 01:27:48;;;;;;;16.03;3.90;;;11.70;78.50;;;;;;954279;148;27253;-81
2024/01/25 01:30:15;;;;;;;10.67;3.33;;;11.70;78.40;;;;;;952991;147;27290;-81
2024/01/25 01:32:41;;;;;;;9.57;3.33;;;11.80;78.40;;;;;;953466;148;27297;-83
2024/01/25 01:35:08;;;;;;;9.90;3.53;;;11.70;78.30;;;;;;954501;147;27433;-80
2024/01/25 01:37:34;;;;;;;13.93;3.77;;;11.70;78.30;;;;;;944192;148;27367;-81
2024/01/25 01:40:01;;;;;;;16.10;4.37;;;11.80;78.40;;;;;;943508;148;27406;-80
2024/01/25 01:42:28;;;;;;;13.53;3.60;;;11.70;78.30;;;;;;943396;150;27407;-81
2024/01/25 01:44:54;;;;;;;7.07;2.63;;;11.70;78.30;;;;;;944096;148;27453;-79
2024/01/25 01:47:21;;;;;;;16.63;4.27;;;11.70;78.20;;;;;;944843;148;27342;-79
2024/01/25 01:49:47;;;;;;;10.80;3.97;;;11.70;78.20;;;;;;943714;149;27341;-80
2024/01/25 01:52:14;;;;;;;10.60;3.73;;;11.70;77.90;;;;;;944510;150;27795;-83
2024/01/25 01:54:41;;;;;;;11.00;3.53;;;11.60;77.90;;;;;;944035;150;27455;-80
2024/01/25 01:57:07;;;;;;;10.23;3.13;;;11.60;77.70;;;;;;944330;150;27406;-80
2024/01/25 01:59:34;;;;;;;12.33;3.47;;;11.50;77.70;;;;;;914872;151;27372;-79
2024/01/25 02:02:00;;;;;;;14.40;4.53;;;11.50;77.90;;;;;;899648;155;27346;-80
2024/01/25 02:04:27;;;;;;;12.35;3.77;;;11.40;78.00;;;;;;916703;152;27481;-84
2024/01/25 02:06:54;;;;;;;8.27;3.53;;;11.40;78.30;;;;;;916539;151;27432;-79
2024/01/25 02:09:20;;;;;;;9.67;3.40;;;11.30;78.40;;;;;;938384;149;27341;-80
2024/01/25 02:11:47;;;;;;;13.60;4.00;;;11.30;78.60;;;;;;935374;151;27258;-80
2024/01/25 02:14:13;;;;;;;10.17;3.43;;;11.30;78.60;;;;;;935055;151;27328;-82
2024/01/25 02:16:40;;;;;;;13.57;3.53;;;11.30;79.60;;;;;;935287;148;27368;-79
2024/01/25 02:19:06;;;;;;;12.43;3.80;;;11.30;78.80;;;;;;935580;150;27311;-79
2024/01/25 02:21:33;;;;;;;13.83;3.75;;;11.30;78.90;;;;;;934679;151;27299;-80
2024/01/25 02:24:00;;;;;;;11.13;3.23;;;11.30;78.80;;;;;;935308;150;27349;-80
2024/01/25 02:26:26;;;;;;;10.03;3.80;;;11.30;78.90;;;;;;935329;150;27358;-79
2024/01/25 02:28:53;;;;;;;12.78;3.60;;;11.30;78.80;;;;;;912322;152;27388;-80
2024/01/25 02:31:19;;;;;;;10.63;3.10;;;11.30;78.90;;;;;;904051;154;27317;-80
2024/01/25 02:33:46;;;;;;;13.10;3.83;;;11.30;78.90;;;;;;898423;155;27479;-82
2024/01/25 02:36:13;;;;;;;13.53;4.03;;;11.30;78.90;;;;;;936795;149;27332;-80
2024/01/25 02:38:39;;;;;;;10.97;3.97;;;11.30;79.10;;;;;;951254;147;27991;-81
2024/01/25 02:41:06;;;;;;;12.67;3.37;;;11.30;79.40;;;;;;950157;148;27254;-81
2024/01/25 02:43:32;;;;;;;10.80;3.30;;;11.30;79.50;;;;;;950128;147;27372;-80
2024/01/25 02:45:59;;;;;;;9.10;3.40;;;11.30;79.40;;;;;;949580;147;27415;-82
2024/01/25 02:48:26;;;;;;;13.17;4.10;;;11.30;79.20;;;;;;951341;148;27343;-82
2024/01/25 02:50:52;;;;;;;12.03;3.10;;;11.30;79.10;;;;;;951191;147;27326;-81
2024/01/25 02:53:19;;;;;;;9.60;4.07;;;11.30;79.10;;;;;;951820;147;27271;-82
2024/01/25 02:55:45;;;;;;;13.67;3.50;;;11.30;79.00;;;;;;948693;147;27650;-82
2024/01/25 02:58:12;;;;;;;14.03;3.23;;;11.20;79.20;;;;;;949854;147;27459;-81
2024/01/25 03:00:38;;;;;;;11.20;3.63;;;11.20;79.10;;;;;;951572;148;27350;-81
2024/01/25 03:03:05;;;;;;;8.57;3.17;;;11.10;79.40;;;;;;951601;147;27264;-81
2024/01/25 03:05:32;;;;;;;12.17;3.40;;;11.10;79.40;;;;;;951845;148;27348;-82
2024/01/25 03:07:58;;;;;;;12.80;3.47;;;11.10;79.40;;;;;;952745;148;27334;-84
2024/01/25 03:10:25;;;;;;;9.87;3.40;;;11.00;79.40;;;;;;952013;147;27463;-81
2024/01/25 03:12:51;;;;;;;12.10;3.50;;;11.00;79.60;;;;;;950855;147;27361;-81
2024/01/25 03:15:18;;;;;;;11.33;4.03;;;10.90;79.60;;;;;;953409;147;27300;-82
2024/01/25 03:17:45;;;;;;;10.40;3.23;;;10.90;79.60;;;;;;952277;147;27648;-83
2024/01/25 03:20:11;;;;;;;7.63;2.73;;;10.90;79.70;;;;;;951728;147;27409;-82
2024/01/25 03:22:38;;;;;;;8.60;2.87;;;10.80;79.80;;;;;;951652;148;27376;-82
2024/01/25 03:25:04;;;;;;;8.70;2.70;;;10.80;80.00;;;;;;951723;148;27308;-82
2024/01/25 03:27:31;;;;;;;8.03;3.10;;;10.80;80.20;;;;;;950225;148;27384;-82
2024/01/25 03:29:58;;;;;;;9.23;3.60;;;10.70;80.50;;;;;;952153;148;27342;-81
2024/01/25 03:32:24;;;;;;;10.37;3.70;;;10.70;80.30;;;;;;951862;148;27309;-82
2024/01/25 03:34:51;;;;;;;13.87;3.17;;;10.70;80.20;;;;;;952503;148;27257;-81
2024/01/25 03:37:17;;;;;;;13.07;4.70;;;10.60;80.20;;;;;;952569;147;27283;-82
2024/01/25 03:39:44;;;;;;;10.83;3.13;;;10.60;81.10;;;;;;955582;148;27516;-83
2024/01/25 03:42:10;;;;;;;12.23;3.33;;;10.50;80.60;;;;;;955932;147;27347;-81
2024/01/25 03:44:37;;;;;;;11.80;3.80;;;10.50;80.90;;;;;;954121;147;27374;-82
2024/01/25 03:47:04;;;;;;;12.23;3.93;;;10.50;81.00;;;;;;953195;147;27254;-82
2024/01/25 03:49:30;;;;;;;12.57;3.90;;;10.50;81.00;;;;;;953924;147;27402;-83
2024/01/25 03:51:57;;;;;;;13.20;3.57;;;10.40;80.90;;;;;;954462;147;27358;-82
2024/01/25 03:54:23;;;;;;;7.77;3.17;;;10.30;80.80;;;;;;952185;147;27291;-81
2024/01/25 03:56:50;;;;;;;8.13;2.37;;;10.30;80.90;;;;;;953244;147;27283;-82
2024/01/25 03:59:17;;;;;;;14.30;3.77;;;10.20;80.90;;;;;;954274;148;27336;-85
2024/01/25 04:01:47;;;;;;;14.40;3.80;;;10.20;81.40;;;;;;953892;146;27420;-86
2024/01/25 04:04:13;;;;;;;11.07;3.63;;;10.10;81.00;;;;;;952603;147;27307;-86
2024/01/25 04:06:42;;;;;;;9.90;3.37;;;10.00;81.00;;;;;;955086;147;27721;-87
2024/01/25 04:09:09;;;;;;;10.47;3.40;;;9.90;81.20;;;;;;954474;147;27786;-86
2024/01/25 04:11:35;;;;;;;15.70;3.90;;;9.80;81.40;;;;;;952856;148;27417;-86
2024/01/25 04:14:02;;;;;;;11.33;3.90;;;9.70;81.70;;;;;;952353;148;28414;-86
2024/01/25 04:16:28;;;;;;;10.40;3.77;;;9.60;81.90;;;;;;952962;147;27244;-84
2024/01/25 04:18:55;;;;;;;12.17;3.53;;;9.50;82.30;;;;;;953980;147;27341;-84
2024/01/25 04:21:22;;;;;;;14.23;4.53;;;9.40;82.60;;;;;;954844;147;27410;-86
2024/01/25 04:23:48;;;;;;;11.67;3.37;;;9.40;82.90;;;;;;951098;147;27378;-86
2024/01/25 04:26:16;;;;;;;14.23;3.87;;;9.30;83.20;;;;;;951801;148;27280;-86
2024/01/25 04:28:41;;;;;;;12.47;3.37;;;9.20;83.90;;;;;;953536;147;27269;-86
2024/01/25 04:31:08;;;;;;;13.10;3.40;;;9.20;83.70;;;;;;953390;147;27265;-84
2024/01/25 04:33:34;;;;;;;11.80;3.90;;;9.10;83.90;;;;;;952395;147;27461;-82
2024/01/25 04:36:01;;;;;;;12.13;3.90;;;9.10;84.20;;;;;;955048;148;27246;-86
2024/01/25 04:38:28;;;;;;;9.90;3.43;;;9.00;84.30;;;;;;958184;147;27290;-86
2024/01/25 04:40:54;;;;;;;13.83;3.90;;;8.90;84.50;;;;;;958954;145;27345;-85
2024/01/25 04:43:21;;;;;;;7.77;3.17;;;8.90;84.80;;;;;;959834;147;27338;-82
2024/01/25 04:45:47;;;;;;;16.43;4.20;;;8.80;85.20;;;;;;961449;147;27318;-86
2024/01/25 04:48:14;;;;;;;14.50;3.47;;;8.80;85.70;;;;;;959078;147;27291;-82
2024/01/25 04:50:41;;;;;;;12.70;3.50;;;8.70;86.10;;;;;;959235;146;27317;-86
2024/01/25 04:53:07;;;;;;;11.27;3.60;;;8.70;86.50;;;;;;953095;146;27311;-84
2024/01/25 04:55:34;;;;;;;13.33;4.33;;;8.70;86.90;;;;;;949414;147;27421;-86
2024/01/25 04:58:00;;;;;;;11.03;4.10;;;8.60;87.30;;;;;;959452;147;27274;-86
2024/01/25 05:00:27;;;;;;;13.17;3.90;;;8.60;87.50;;;;;;959907;146;27385;-84
2024/01/25 05:02:53;;;;;;;15.57;4.07;;;8.60;87.70;;;;;;957661;147;27288;-83
2024/01/25 05:05:20;;;;;;;15.83;4.37;;;8.60;87.80;;;;;;962518;147;28700;-85
2024/01/25 05:07:47;;;;;;;13.10;3.67;;;8.60;87.80;;;;;;959889;146;27310;-86
2024/01/25 05:10:13;;;;;;;10.30;4.13;;;8.60;87.70;;;;;;958151;147;27995;-85
2024/01/25 05:12:40;;;;;;;11.63;4.83;;;8.50;87.90;;;;;;959953;147;27443;-82
2024/01/25 05:15:06;;;;;;;8.67;3.57;;;8.40;87.90;;;;;;961216;147;27316;-85
2024/01/25 05:17:33;;;;;;;10.00;2.77;;;8.40;88.20;;;;;;959507;147;27313;-86
2024/01/25 05:20:00;;;;;;;11.60;3.77;;;8.40;88.30;;;;;;959089;146;27332;-81
2024/01/25 05:22:26;;;;;;;11.53;3.93;;;8.30;88.50;;;;;;961409;147;27288;-81
2024/01/25 05:24:53;;;;;;;9.50;3.53;;;8.30;88.80;;;;;;961637;146;27323;-80
2024/01/25 05:27:19;;;;;;;14.23;3.80;;;8.20;89.20;;;;;;959446;146;27308;-81
2024/01/25 05:29:46;;;;;;;16.53;3.10;;;8.20;89.80;;;;;;959742;147;27268;-81
2024/01/25 05:32:13;;;;;;;15.33;4.43;;;8.20;90.10;;;;;;958048;144;27337;-80
2024/01/25 05:34:39;;;;;;;11.53;3.87;;;8.20;90.30;;;;;;959699;146;27393;-84
2024/01/25 05:37:06;;;;;;;15.00;4.37;;;8.20;90.60;;;;;;959632;146;27330;-81
2024/01/25 05:39:32;;;;;;;8.57;3.47;;;8.20;90.90;;;;;;960087;146;27432;-81
2024/01/25 05:41:59;;;;;;;12.80;3.90;;;8.20;91.10;;;;;;958843;147;27275;-81
2024/01/25 05:44:25;;;;;;;13.53;4.33;;;8.30;91.20;;;;;;959508;147;27306;-81
2024/01/25 05:46:52;;;;;;;14.27;3.43;;;8.30;91.20;;;;;;958494;146;27324;-80
2024/01/25 05:49:19;;;;;;;14.97;4.20;;;8.40;91.20;;;;;;960343;147;27243;-80
2024/01/25 05:51:45;;;;;;;12.30;3.40;;;8.40;91.50;;;;;;960147;146;27391;-83
2024/01/25 05:54:12;;;;;;;12.80;3.73;;;8.40;91.10;;;;;;959524;147;27341;-84
2024/01/25 05:56:38;;;;;;;7.90;3.07;;;8.40;91.10;;;;;;958107;145;27350;-82
2024/01/25 05:59:05;;;;;;;12.13;3.60;;;8.40;91.10;;;;;;959663;145;27296;-81
2024/01/25 06:01:32;;;;;;;13.67;3.97;;;8.40;91.10;;;;;;961403;147;27290;-81
2024/01/25 06:03:58;;;;;;;14.00;3.57;;;8.30;91.20;;;;;;960011;147;27354;-80
2024/01/25 06:06:25;;;;;;;13.43;3.60;;;8.30;91.20;;;;;;959363;147;27369;-82
2024/01/25 06:08:51;;;;;;;11.97;3.50;;;8.30;91.20;;;;;;960235;146;27975;-81
2024/01/25 06:11:18;;;;;;;14.17;4.10;;;8.30;91.20;;;;;;960581;146;27403;-82
2024/01/25 06:13:45;;;;;;;14.47;3.60;;;8.30;91.30;;;;;;960758;147;27357;-82
2024/01/25 06:16:11;;;;;;;12.97;3.60;;;8.20;91.30;;;;;;959334;145;27363;-82
2024/01/25 06:18:38;;;;;;;10.47;3.13;;;8.20;91.50;;;;;;960581;147;27462;-82
2024/01/25 06:21:04;;;;;;;16.43;4.80;;;8.20;91.50;;;;;;959944;146;27269;-82
2024/01/25 06:23:31;;;;;;;11.87;3.73;;;8.20;91.70;;;;;;961795;146;27467;-82
2024/01/25 06:25:57;;;;;;;13.70;4.20;;;8.10;91.80;;;;;;959618;147;27338;-83
2024/01/25 06:28:25;;;;;;;15.00;3.60;;;8.10;91.90;;;;;;959259;146;27803;-82
2024/01/25 06:30:51;;;;;;;14.73;4.83;;;8.10;92.00;;;;;;959019;145;27439;-83
2024/01/25 06:33:17;;;;;;;11.13;3.90;;;8.10;92.00;;;;;;959545;147;28892;-82
2024/01/25 06:35:44;;;;;;;12.07;3.87;;;8.10;92.10;;;;;;962034;145;27284;-82
2024/01/25 06:38:10;;;;;;;13.63;3.83;;;8.10;92.20;;;;;;959985;146;27322;-84
2024/01/25 06:40:38;;;;;;;12.13;4.13;;;8.00;92.30;;;;;;954610;146;27492;-84
2024/01/25 06:43:04;;;;;;;15.33;4.70;;;8.00;92.40;;;;;;953740;148;27242;-83
2024/01/25 06:45:30;;;;;;;9.57;4.10;;;8.00;92.50;;;;;;954401;147;27352;-82
2024/01/25 06:47:57;;;;;;;10.53;4.70;;;8.00;92.70;;;;;;953978;148;27262;-82
2024/01/25 06:50:23;;;;;;;9.47;4.00;;;7.90;92.70;;;;;;952289;147;27417;-82
2024/01/25 06:52:50;;;;;;;15.43;4.47;;;7.90;92.80;;;;;;953407;147;27425;-83
2024/01/25 06:55:16;;;;;;;14.23;4.50;;;7.90;93.00;;;;;;953658;148;27311;-82
2024/01/25 06:57:43;;;;;;;16.03;4.53;;;7.90;93.30;;;;;;954113;147;27401;-82
2024/01/25 07:00:12;;;;;;;17.93;5.40;;;7.90;93.70;;;;;;953771;147;27332;-82
2024/01/25 07:02:36;;;;;;;12.77;3.73;;;7.90;94.00;;;;;;954204;148;27336;-82
2024/01/25 07:05:04;;;;;;;11.60;3.47;;;7.90;94.20;;;;;;953539;147;27389;-82
2024/01/25 07:07:32;;;;;;;11.47;3.67;;;7.90;94.20;;;;;;953335;147;27291;-82
2024/01/25 07:09:56;;;;;;;15.47;4.60;;;8.00;94.30;;;;;;952559;148;27376;-84
2024/01/25 07:12:23;;;;;;;10.73;3.67;;;8.00;94.20;;;;;;953224;148;27335;-82
2024/01/25 07:14:49;;;;;;;11.80;4.00;;;8.00;94.20;;;;;;952780;148;27296;-82
2024/01/25 07:17:16;;;;;;;17.57;4.87;;;8.10;94.10;;;;;;952085;147;27236;-83
2024/01/25 07:19:42;;;;;;;13.00;4.57;;;8.10;94.10;;;;;;954262;148;27325;-82
2024/01/25 07:22:11;;;;;;;8.83;3.83;;;8.10;94.20;;;;;;955376;147;27350;-85
2024/01/25 07:24:36;;;;;;;15.47;4.43;;;8.10;94.30;;;;;;952235;148;27307;-85
2024/01/25 07:27:02;;;;;;;16.10;5.07;;;8.10;94.40;;;;;;956459;146;27346;-85
2024/01/25 07:29:29;;;;;;;17.60;4.73;;;8.10;94.50;;;;;;952007;147;27753;-83
2024/01/25 07:31:55;;;;;;;14.03;3.47;;;8.10;94.60;;;;;;954536;148;27343;-83
2024/01/25 07:34:22;;;;;;;12.57;3.87;;;8.10;95.20;;;;;;953710;148;27355;-83
2024/01/25 07:36:48;;;;;;;15.10;4.53;;;8.10;95.00;;;;;;951419;148;27313;-83
2024/01/25 07:39:15;;;;;;;11.00;3.57;;;8.20;95.10;;;;;;953360;148;27413;-82
2024/01/25 07:41:42;;;;;;;12.83;3.60;;;8.20;95.30;;;;;;974942;144;27975;-81
2024/01/25 07:44:08;;;;;;;11.97;3.60;;;8.30;95.60;;;;;;975637;145;27341;-83
2024/01/25 07:46:35;;;;;;;9.13;3.77;;;8.30;95.90;;;;;;977119;145;27301;-84
2024/01/25 07:49:01;;;;;;;14.57;3.50;;;8.40;96.30;;;;;;973895;145;27249;-84
2024/01/25 07:51:28;;;;;;;15.70;3.40;;;8.60;96.70;;;;;;973781;145;27332;-82
2024/01/25 07:53:55;;;;;;;14.07;4.33;;;8.70;96.90;;;;;;974932;145;27337;-84
2024/01/25 07:56:24;;;;;;;10.70;3.67;;;8.90;97.10;;;;;;975844;145;27260;-83
2024/01/25 07:58:48;;;;;;;15.93;3.87;;;9.00;96.90;;;;;;973730;145;27284;-82
2024/01/25 08:01:15;;;;;;;15.70;4.70;;;9.20;96.90;;;;;;957667;145;27284;-83
2024/01/25 08:03:41;;;;;;;8.83;3.27;;;9.40;97.00;;;;;;953466;148;27371;-83
2024/01/25 08:06:07;;;;;;;14.00;4.27;;;9.70;97.40;;;;;;954784;148;27299;-84
2024/01/25 08:08:34;;;;;;;10.77;3.70;;;9.90;97.50;;;;;;952509;148;27373;-83
2024/01/25 08:11:01;;;;;;;12.13;3.90;;;10.20;97.50;;;;;;955931;148;27748;-83
2024/01/25 08:13:30;;;;;;;11.83;3.87;;;10.50;97.20;;;;;;956582;147;27347;-84
2024/01/25 08:15:57;;;;;;;11.17;3.70;;;10.80;97.10;;;;;;954754;148;27276;-82
2024/01/25 08:18:23;;;;;;;12.70;3.87;;;11.20;96.90;;;;;;952770;148;27349;-83
2024/01/25 08:20:50;;;;;;;9.93;4.10;;;11.50;96.50;;;;;;955720;147;27380;-83
2024/01/25 08:23:18;;;;;;;11.60;3.63;;;11.90;96.30;;;;;;953987;148;27394;-84
2024/01/25 08:25:43;;;;;;;12.70;4.10;;;12.20;95.90;;;;;;955428;147;27485;-84
2024/01/25 08:28:10;;;;;;;11.57;3.47;;;12.60;95.40;;;;;;954445;147;27356;-83
2024/01/25 08:30:36;;;;;;;15.32;4.12;;;13.00;94.90;;;;;;955673;148;27350;-79
2024/01/25 08:33:03;;;;;;;8.35;4.10;;;13.40;94.10;;;;;;954358;147;27316;-78
2024/01/25 08:35:32;;;;;;;13.65;4.75;;;13.70;93.10;;;;;;954049;148;27374;-78
2024/01/25 08:37:56;;;;;;;11.88;3.72;;;14.10;91.80;;;;;;952500;148;27311;-79
2024/01/25 08:40:22;;;;;;;13.22;3.67;;;14.40;90.70;;;;;;954322;147;27357;-84
2024/01/25 08:42:49;;;;;;;11.25;3.80;;;14.60;89.20;;;;;;960473;146;27295;-83
2024/01/25 08:45:16;;;;;;;8.75;3.30;;;14.70;86.70;;;;;;962040;147;27343;-84
2024/01/25 08:47:42;;;;;;;10.08;3.75;;;14.80;85.00;;;;;;960713;146;27374;-83
2024/01/25 08:50:11;;;;;;;14.73;4.25;;;14.90;83.90;;;;;;959904;147;27372;-83
2024/01/25 08:52:36;;;;;;;12.85;3.95;;;14.90;82.90;;;;;;958655;146;27361;-83
2024/01/25 08:55:02;;;;;;;9.23;3.42;;;14.90;82.00;;;;;;960164;147;27423;-83
2024/01/25 08:57:29;;;;;;;11.85;4.42;;;14.90;81.90;;;;;;960867;147;29222;-83
2024/01/25 08:59:58;;;;;;;11.33;4.10;;;14.90;81.80;;;;;;960271;147;27263;-83
2024/01/25 09:02:26;;;;;;;10.70;3.77;;;14.90;81.20;;;;;;959028;147;27276;-83
2024/01/25 09:04:49;;;;;;;14.75;3.75;;;14.80;80.70;;;;;;960178;146;27722;-81
2024/01/25 09:07:15;;;;;;;12.43;4.37;;;14.80;80.00;;;;;;961396;147;27350;-83
2024/01/25 09:09:42;;;;;;;10.85;3.85;;;14.70;79.70;;;;;;960264;145;27342;-84
2024/01/25 09:12:11;;;;;;;13.20;4.20;;;14.60;79.30;;;;;;960175;147;27298;-83
2024/01/25 09:14:36;;;;;;;10.25;3.47;;;14.50;79.30;;;;;;959447;147;27361;-82
2024/01/25 09:17:01;;;;;;;10.35;4.10;;;14.40;79.20;;;;;;960951;147;27371;-83
2024/01/25 09:19:28;;;;;;;11.22;3.70;;;14.40;79.70;;;;;;959908;147;27359;-83
2024/01/25 09:21:56;;;;;;;10.28;3.62;;;14.30;79.70;;;;;;959485;146;27377;-83
2024/01/25 09:24:21;;;;;;;9.38;3.33;;;14.30;79.80;;;;;;953011;146;27284;-83
2024/01/25 09:26:48;;;;;;;17.05;4.25;;;14.20;79.90;;;;;;950253;148;27367;-84
2024/01/25 09:29:14;;;;;;;9.13;3.52;;;14.20;80.00;;;;;;949685;147;27335;-83
2024/01/25 09:31:41;;;;;;;11.00;3.35;;;14.20;80.00;;;;;;948367;147;27383;-83
2024/01/25 09:34:08;;;;;;;11.28;4.20;;;14.20;80.20;;;;;;950615;147;27306;-82
2024/01/25 09:36:34;;;;;;;10.38;4.15;;;14.20;80.10;;;;;;949943;147;27428;-81
2024/01/25 09:39:01;;;;;;;12.20;4.50;;;14.30;79.90;;;;;;951291;148;27359;-84
2024/01/25 09:41:27;;;;;;;14.35;5.08;;;14.30;79.70;;;;;;953292;145;28064;-80
2024/01/25 09:43:54;;;;;;;10.53;4.17;;;14.30;79.70;;;;;;959442;146;27291;-82
2024/01/25 09:46:21;;;;;;;11.95;4.30;;;14.30;79.80;;;;;;959980;147;27319;-82
2024/01/25 09:48:47;;;;;;;15.85;4.40;;;14.30;79.70;;;;;;956645;146;27331;-80
2024/01/25 09:51:14;;;;;;;11.65;4.62;;;14.40;79.70;;;;;;952605;148;27489;-84
2024/01/25 09:53:43;;;;;;;8.83;3.42;;;14.40;79.40;;;;;;953195;148;27381;-82
2024/01/25 09:56:10;;;;;;;11.18;3.50;;;14.50;79.30;;;;;;952686;147;27334;-82
2024/01/25 09:58:42;;;;;;;8.93;3.30;;;14.50;78.90;;;;;;952735;148;27363;-84
2024/01/25 10:01:09;;;;;;;11.53;3.83;;;14.50;78.80;;;;;;954362;148;27303;-83
2024/01/25 10:03:35;;;;;;;11.83;4.03;;;14.60;78.80;;;;;;953220;148;27313;-82
2024/01/25 10:06:03;;;;;;;7.28;3.37;;;14.60;78.60;;;;;;954833;148;27285;-82
2024/01/25 10:08:28;;;;;;;16.45;3.98;;;14.60;78.50;;;;;;950700;148;27451;-83
2024/01/25 10:10:55;;;;;;;9.55;4.15;;;14.60;78.20;;;;;;953524;148;27258;-82
2024/01/25 10:13:22;;;;;;;11.85;4.80;;;14.60;77.90;;;;;;955521;148;27417;-83
2024/01/25 10:15:48;;;;;;;9.88;3.55;;;14.70;77.90;;;;;;953091;147;27288;-82
2024/01/25 10:18:15;;;;;;;11.12;4.42;;;14.70;77.60;;;;;;952618;148;27355;-81
2024/01/25 10:20:41;;;;;;;12.30;4.05;;;14.70;77.40;;;;;;954132;148;27422;-83
2024/01/25 10:23:08;;;;;;;12.70;4.30;;;14.70;77.10;;;;;;953413;147;27320;-82
2024/01/25 10:25:34;;;;;;;14.07;4.42;;;14.70;77.10;;;;;;953522;148;27733;-82
2024/01/25 10:28:01;;;;;;;15.60;4.85;;;14.80;76.90;;;;;;953631;147;27344;-83
2024/01/25 10:30:28;;;;;;;10.43;4.20;;;14.80;77.10;;;;;;953466;148;27340;-83
2024/01/25 10:32:54;;;;;;;10.50;4.35;;;14.80;76.80;;;;;;954840;147;27436;-83
2024/01/25 10:35:21;;;;;;;12.58;4.42;;;14.90;76.70;;;;;;953227;148;27297;-82
2024/01/25 10:37:47;;;;;;;11.68;4.37;;;14.90;76.60;;;;;;955355;147;27236;-83
2024/01/25 10:40:14;;;;;;;14.25;5.17;;;15.00;76.50;;;;;;953831;147;27331;-83
2024/01/25 10:42:41;;;;;;;14.20;4.37;;;15.00;76.10;;;;;;953532;147;27380;-81
2024/01/25 10:45:07;;;;;;;9.23;3.72;;;15.10;75.90;;;;;;952031;148;27284;-83
2024/01/25 10:47:35;;;;;;;10.85;3.92;;;15.10;75.50;;;;;;953609;148;27292;-83
2024/01/25 10:50:00;;;;;;;11.48;4.53;;;15.10;74.60;;;;;;954384;148;27424;-81
2024/01/25 10:52:27;;;;;;;14.20;4.60;;;15.20;75.30;;;;;;955004;147;27880;-83
2024/01/25 10:54:54;;;;;;;14.03;4.85;;;15.20;74.90;;;;;;954535;148;27786;-83
2024/01/25 10:57:20;;;;;;;14.13;3.90;;;15.30;74.80;;;;;;953382;148;27373;-83
2024/01/25 10:59:47;;;;;;;12.30;4.08;;;15.30;75.20;;;;;;955964;147;27281;-83
2024/01/25 11:02:13;;;;;;;13.83;3.72;;;15.30;74.40;;;;;;953998;148;27334;-85
2024/01/25 11:04:40;;;;;;;10.00;3.62;;;15.40;74.20;;;;;;954175;148;27329;-85
2024/01/25 11:07:07;;;;;;;9.13;3.62;;;15.40;74.00;;;;;;952308;148;27412;-85
2024/01/25 11:09:33;;;;;;;13.78;4.12;;;15.40;73.90;;;;;;955667;148;27418;-84
2024/01/25 11:12:00;;;;;;;9.25;4.17;;;15.40;73.80;;;;;;955146;147;27421;-81
2024/01/25 11:14:26;;;;;;;13.32;4.08;;;15.50;74.60;;;;;;954738;148;27321;-78
2024/01/25 11:16:53;;;;;;;13.25;4.60;;;15.60;73.90;;;;;;909080;154;27399;-78
2024/01/25 11:19:19;;;;;;;14.95;5.42;;;15.60;73.70;;;;;;955874;148;27274;-78
2024/01/25 11:21:46;;;;;;;9.85;4.40;;;15.60;73.50;;;;;;954364;147;27618;-80
2024/01/25 11:24:29;;;;;;;11.93;3.77;;;15.60;73.50;;;;;;953529;148;27460;-80
2024/01/25 11:26:51;;;;;;;9.55;3.40;;;15.70;73.10;;;;;;954180;147;27284;-78
2024/01/25 11:29:22;;;;;;;13.72;3.95;;;15.70;72.90;;;;;;953919;147;27359;-79
2024/01/25 11:31:47;;;;;;;14.13;3.60;;;15.70;72.70;;;;;;953079;148;27502;-81
2024/01/25 11:34:15;;;;;;;11.60;4.10;;;15.70;72.60;;;;;;952339;148;27302;-81
2024/01/25 11:36:41;;;;;;;9.38;3.55;;;15.70;72.60;;;;;;951368;148;27380;-78
2024/01/25 11:39:07;;;;;;;11.18;4.12;;;15.70;72.60;;;;;;953148;148;27268;-79
2024/01/25 11:41:33;;;;;;;9.78;3.30;;;15.70;72.50;;;;;;953033;145;27327;-81
2024/01/25 11:44:00;;;;;;;9.38;3.62;;;15.80;72.30;;;;;;952915;148;27490;-78
2024/01/25 11:46:27;;;;;;;9.70;3.70;;;15.80;72.00;;;;;;953962;148;27285;-78
2024/01/25 11:48:53;;;;;;;9.48;3.75;;;15.80;71.70;;;;;;953436;148;27331;-78
2024/01/25 11:51:20;;;;;;;10.23;3.58;;;15.80;71.60;;;;;;954905;148;27317;-79
2024/01/25 11:53:46;;;;;;;8.18;3.35;;;15.80;71.50;;;;;;954545;148;27301;-81
2024/01/25 11:56:13;;;;;;;17.48;3.98;;;15.80;71.40;;;;;;953988;147;27454;-78
2024/01/25 11:58:40;;;;;;;11.33;3.87;;;15.80;71.00;;;;;;953343;147;27285;-78
2024/01/25 12:01:07;;;;;;;9.83;3.40;;;15.80;70.40;;;;;;954966;146;27314;-78
2024/01/25 12:03:33;;;;;;;11.97;4.25;;;15.70;70.30;;;;;;952692;148;27289;-79
2024/01/25 12:06:00;;;;;;;10.13;3.35;;;15.70;70.40;;;;;;954624;148;27355;-79
2024/01/25 12:08:26;;;;;;;9.80;3.37;;;15.70;70.30;;;;;;953049;148;27315;-78
2024/01/25 12:10:53;;;;;;;9.15;3.58;;;15.70;70.20;;;;;;952524;148;27300;-79
2024/01/25 12:13:19;;;;;;;7.65;3.25;;;15.60;70.10;;;;;;955295;148;27399;-79
2024/01/25 12:15:46;;;;;;;10.15;3.25;;;15.60;70.00;;;;;;954551;147;27410;-81
2024/01/25 12:18:12;;;;;;;15.68;4.33;;;15.50;69.80;;;;;;954038;147;27335;-79
2024/01/25 12:20:39;;;;;;;8.95;3.42;;;15.50;69.80;;;;;;953720;146;27237;-84
2024/01/25 12:23:06;;;;;;;10.63;4.33;;;15.50;69.70;;;;;;952470;148;27336;-83
2024/01/25 12:25:32;;;;;;;13.20;3.80;;;15.40;69.60;;;;;;955440;147;27377;-84
2024/01/25 12:27:59;;;;;;;10.80;3.90;;;15.40;69.60;;;;;;953395;148;27332;-86
2024/01/25 12:30:25;;;;;;;9.60;3.35;;;15.40;69.80;;;;;;953088;147;27253;-85
2024/01/25 12:32:52;;;;;;;10.72;3.60;;;15.30;69.90;;;;;;953683;147;27392;-84
2024/01/25 12:35:18;;;;;;;13.95;4.65;;;15.30;69.80;;;;;;953989;147;27381;-83
2024/01/25 12:37:45;;;;;;;8.10;3.40;;;15.30;69.60;;;;;;955861;147;27435;-85
2024/01/25 12:40:12;;;;;;;12.75;4.10;;;15.30;69.70;;;;;;953511;147;27389;-84